sensor_id;sensor_type;location;lat;lon;timestamp;P1;durP1;ratioP1;P2;durP2;ratioP2
43682;SDS011;29285;52.128;21.060;2023-05-10T00:03:35;8.60;;;5.30;;
43682;SDS011;29285;52.128;21.060;2023-05-10T00:08:36;9.30;;;5.40;;
43682;SDS011;29285;52.128;21.060;2023-05-10T00:13:37;8.20;;;5.20;;
43682;SDS011;29285;52.128;21.060;2023-05-10T00:18:38;13.20;;;6.10;;
43682;SDS011;29285;52.128;21.060;2023-05-10T00:23:40;8.80;;;5.70;;
43682;SDS011;29285;52.128;21.060;2023-05-10T00:28:41;10.00;;;5.00;;
43682;SDS011;29285;52.128;21.060;2023-05-10T00:33:42;7.40;;;4.90;;
43682;SDS011;29285;52.128;21.060;2023-05-10T00:38:43;8.20;;;5.50;;
43682;SDS011;29285;52.128;21.060;2023-05-10T00:43:44;9.70;;;5.60;;
43682;SDS011;29285;52.128;21.060;2023-05-10T00:48:45;7.40;;;4.80;;
43682;SDS011;29285;52.128;21.060;2023-05-10T00:53:46;7.80;;;4.70;;
43682;SDS011;29285;52.128;21.060;2023-05-10T00:58:49;8.70;;;5.50;;
43682;SDS011;29285;52.128;21.060;2023-05-10T01:03:50;7.30;;;4.60;;
43682;SDS011;29285;52.128;21.060;2023-05-10T01:08:51;8.20;;;5.10;;
43682;SDS011;29285;52.128;21.060;2023-05-10T01:13:54;6.50;;;4.80;;
43682;SDS011;29285;52.128;21.060;2023-05-10T01:18:57;8.80;;;5.40;;
43682;SDS011;29285;52.128;21.060;2023-05-10T01:35:00;7.50;;;4.60;;
43682;SDS011;29285;52.128;21.060;2023-05-10T01:40:13;8.60;;;4.80;;
43682;SDS011;29285;52.128;21.060;2023-05-10T01:50:37;5.90;;;4.80;;
43682;SDS011;29285;52.128;21.060;2023-05-10T01:55:47;4.80;;;4.10;;
43682;SDS011;29285;52.128;21.060;2023-05-10T02:00:51;9.50;;;4.60;;
43682;SDS011;29285;52.128;21.060;2023-05-10T02:05:54;5.60;;;4.30;;
43682;SDS011;29285;52.128;21.060;2023-05-10T02:10:56;8.80;;;4.50;;
43682;SDS011;29285;52.128;21.060;2023-05-10T02:15:59;7.40;;;4.80;;
43682;SDS011;29285;52.128;21.060;2023-05-10T02:21:04;6.90;;;4.50;;
43682;SDS011;29285;52.128;21.060;2023-05-10T02:26:05;7.80;;;4.80;;
43682;SDS011;29285;52.128;21.060;2023-05-10T02:31:08;6.50;;;4.70;;
43682;SDS011;29285;52.128;21.060;2023-05-10T02:36:11;6.70;;;4.90;;
43682;SDS011;29285;52.128;21.060;2023-05-10T02:41:14;5.90;;;3.80;;
43682;SDS011;29285;52.128;21.060;2023-05-10T02:46:15;6.00;;;4.40;;
43682;SDS011;29285;52.128;21.060;2023-05-10T02:51:18;6.50;;;3.80;;
43682;SDS011;29285;52.128;21.060;2023-05-10T02:56:30;9.60;;;3.90;;
43682;SDS011;29285;52.128;21.060;2023-05-10T03:01:33;5.70;;;3.80;;
43682;SDS011;29285;52.128;21.060;2023-05-10T03:06:35;9.30;;;3.80;;
43682;SDS011;29285;52.128;21.060;2023-05-10T03:16:52;8.50;;;3.30;;
43682;SDS011;29285;52.128;21.060;2023-05-10T03:22:04;5.70;;;4.00;;
43682;SDS011;29285;52.128;21.060;2023-05-10T03:27:10;4.90;;;3.50;;
43682;SDS011;29285;52.128;21.060;2023-05-10T03:32:13;6.30;;;3.40;;
43682;SDS011;29285;52.128;21.060;2023-05-10T03:37:14;5.60;;;3.70;;
43682;SDS011;29285;52.128;21.060;2023-05-10T03:42:15;6.30;;;3.80;;
43682;SDS011;29285;52.128;21.060;2023-05-10T03:47:18;9.60;;;4.40;;
43682;SDS011;29285;52.128;21.060;2023-05-10T03:52:19;7.90;;;3.90;;
43682;SDS011;29285;52.128;21.060;2023-05-10T03:57:20;7.30;;;5.00;;
43682;SDS011;29285;52.128;21.060;2023-05-10T04:02:21;9.30;;;6.60;;
43682;SDS011;29285;52.128;21.060;2023-05-10T04:07:22;5.30;;;4.40;;
43682;SDS011;29285;52.128;21.060;2023-05-10T04:12:23;9.50;;;6.10;;
43682;SDS011;29285;52.128;21.060;2023-05-10T04:17:24;7.30;;;4.80;;
43682;SDS011;29285;52.128;21.060;2023-05-10T04:22:25;7.30;;;4.30;;
43682;SDS011;29285;52.128;21.060;2023-05-10T04:27:28;5.90;;;4.30;;
43682;SDS011;29285;52.128;21.060;2023-05-10T04:32:29;7.00;;;4.00;;
43682;SDS011;29285;52.128;21.060;2023-05-10T04:37:30;4.80;;;3.60;;
43682;SDS011;29285;52.128;21.060;2023-05-10T04:42:31;5.60;;;3.90;;
43682;SDS011;29285;52.128;21.060;2023-05-10T04:47:33;7.60;;;3.70;;
43682;SDS011;29285;52.128;21.060;2023-05-10T04:52:34;5.80;;;3.90;;
43682;SDS011;29285;52.128;21.060;2023-05-10T04:57:35;6.40;;;3.60;;
43682;SDS011;29285;52.128;21.060;2023-05-10T05:02:38;5.70;;;3.40;;
43682;SDS011;29285;52.128;21.060;2023-05-10T05:07:39;5.70;;;3.40;;
43682;SDS011;29285;52.128;21.060;2023-05-10T05:12:40;9.90;;;3.50;;
43682;SDS011;29285;52.128;21.060;2023-05-10T05:17:41;5.00;;;3.20;;
43682;SDS011;29285;52.128;21.060;2023-05-10T05:22:42;5.50;;;3.50;;
43682;SDS011;29285;52.128;21.060;2023-05-10T05:27:44;8.90;;;4.20;;
43682;SDS011;29285;52.128;21.060;2023-05-10T05:32:45;7.00;;;3.00;;
43682;SDS011;29285;52.128;21.060;2023-05-10T05:37:47;6.40;;;3.50;;
43682;SDS011;29285;52.128;21.060;2023-05-10T05:42:48;7.70;;;3.50;;
43682;SDS011;29285;52.128;21.060;2023-05-10T05:47:50;7.20;;;3.40;;
43682;SDS011;29285;52.128;21.060;2023-05-10T05:52:51;12.60;;;4.00;;
43682;SDS011;29285;52.128;21.060;2023-05-10T05:57:52;5.60;;;2.70;;
43682;SDS011;29285;52.128;21.060;2023-05-10T06:02:54;6.30;;;2.80;;
43682;SDS011;29285;52.128;21.060;2023-05-10T06:07:55;5.80;;;3.40;;
43682;SDS011;29285;52.128;21.060;2023-05-10T06:12:57;5.70;;;3.00;;
43682;SDS011;29285;52.128;21.060;2023-05-10T06:17:58;4.50;;;3.00;;
43682;SDS011;29285;52.128;21.060;2023-05-10T06:22:59;5.70;;;3.10;;
43682;SDS011;29285;52.128;21.060;2023-05-10T06:28:00;5.20;;;3.50;;
43682;SDS011;29285;52.128;21.060;2023-05-10T06:33:02;8.20;;;3.00;;
43682;SDS011;29285;52.128;21.060;2023-05-10T06:38:03;8.50;;;3.20;;
43682;SDS011;29285;52.128;21.060;2023-05-10T06:43:04;5.70;;;2.80;;
43682;SDS011;29285;52.128;21.060;2023-05-10T06:48:06;6.10;;;3.50;;
43682;SDS011;29285;52.128;21.060;2023-05-10T06:53:08;8.20;;;3.10;;
43682;SDS011;29285;52.128;21.060;2023-05-10T06:58:09;3.30;;;2.70;;
43682;SDS011;29285;52.128;21.060;2023-05-10T07:03:10;4.00;;;2.80;;
43682;SDS011;29285;52.128;21.060;2023-05-10T07:08:11;6.60;;;3.30;;
43682;SDS011;29285;52.128;21.060;2023-05-10T07:13:14;6.50;;;2.90;;
43682;SDS011;29285;52.128;21.060;2023-05-10T07:18:15;3.40;;;2.70;;
43682;SDS011;29285;52.128;21.060;2023-05-10T07:23:16;6.50;;;3.30;;
43682;SDS011;29285;52.128;21.060;2023-05-10T07:28:20;2.80;;;2.20;;
43682;SDS011;29285;52.128;21.060;2023-05-10T07:33:22;5.10;;;2.60;;
43682;SDS011;29285;52.128;21.060;2023-05-10T07:38:23;4.60;;;2.10;;
43682;SDS011;29285;52.128;21.060;2023-05-10T07:43:25;5.20;;;2.40;;
43682;SDS011;29285;52.128;21.060;2023-05-10T07:48:26;4.50;;;2.00;;
43682;SDS011;29285;52.128;21.060;2023-05-10T07:53:27;5.10;;;2.10;;
43682;SDS011;29285;52.128;21.060;2023-05-10T07:58:28;3.90;;;3.00;;
43682;SDS011;29285;52.128;21.060;2023-05-10T08:03:29;3.20;;;2.20;;
43682;SDS011;29285;52.128;21.060;2023-05-10T08:08:30;4.70;;;1.90;;
43682;SDS011;29285;52.128;21.060;2023-05-10T08:13:31;2.50;;;2.20;;
43682;SDS011;29285;52.128;21.060;2023-05-10T08:18:32;5.40;;;1.90;;
43682;SDS011;29285;52.128;21.060;2023-05-10T08:23:33;4.60;;;2.40;;
43682;SDS011;29285;52.128;21.060;2023-05-10T08:28:34;5.80;;;2.30;;
43682;SDS011;29285;52.128;21.060;2023-05-10T08:33:35;4.10;;;2.20;;
43682;SDS011;29285;52.128;21.060;2023-05-10T08:38:37;5.90;;;2.40;;
43682;SDS011;29285;52.128;21.060;2023-05-10T08:43:38;3.00;;;2.00;;
43682;SDS011;29285;52.128;21.060;2023-05-10T08:48:39;4.80;;;2.70;;
43682;SDS011;29285;52.128;21.060;2023-05-10T08:53:41;2.70;;;2.00;;
43682;SDS011;29285;52.128;21.060;2023-05-10T08:58:42;3.40;;;2.20;;
43682;SDS011;29285;52.128;21.060;2023-05-10T09:03:45;4.00;;;1.90;;
43682;SDS011;29285;52.128;21.060;2023-05-10T09:08:47;3.70;;;2.40;;
43682;SDS011;29285;52.128;21.060;2023-05-10T09:13:48;3.90;;;2.20;;
43682;SDS011;29285;52.128;21.060;2023-05-10T09:18:51;4.20;;;2.70;;
43682;SDS011;29285;52.128;21.060;2023-05-10T09:23:52;5.20;;;2.50;;
43682;SDS011;29285;52.128;21.060;2023-05-10T09:28:56;3.90;;;2.70;;
43682;SDS011;29285;52.128;21.060;2023-05-10T09:33:57;6.70;;;2.10;;
43682;SDS011;29285;52.128;21.060;2023-05-10T09:38:58;5.00;;;2.20;;
43682;SDS011;29285;52.128;21.060;2023-05-10T09:44:00;4.10;;;2.20;;
43682;SDS011;29285;52.128;21.060;2023-05-10T09:49:01;5.20;;;2.00;;
43682;SDS011;29285;52.128;21.060;2023-05-10T09:54:09;3.60;;;2.40;;
43682;SDS011;29285;52.128;21.060;2023-05-10T09:59:10;4.50;;;2.20;;
43682;SDS011;29285;52.128;21.060;2023-05-10T10:04:12;7.00;;;2.70;;
43682;SDS011;29285;52.128;21.060;2023-05-10T10:09:13;4.80;;;2.50;;
43682;SDS011;29285;52.128;21.060;2023-05-10T10:14:14;3.10;;;2.40;;
43682;SDS011;29285;52.128;21.060;2023-05-10T10:24:20;3.00;;;2.20;;
43682;SDS011;29285;52.128;21.060;2023-05-10T10:29:23;3.40;;;2.30;;
43682;SDS011;29285;52.128;21.060;2023-05-10T10:34:31;2.70;;;2.30;;
43682;SDS011;29285;52.128;21.060;2023-05-10T10:39:32;6.90;;;2.20;;
43682;SDS011;29285;52.128;21.060;2023-05-10T10:44:34;5.10;;;2.20;;
43682;SDS011;29285;52.128;21.060;2023-05-10T10:54:49;4.20;;;2.10;;
43682;SDS011;29285;52.128;21.060;2023-05-10T10:59:53;5.70;;;2.60;;
43682;SDS011;29285;52.128;21.060;2023-05-10T11:10:52;6.50;;;2.70;;
43682;SDS011;29285;52.128;21.060;2023-05-10T11:16:20;2.20;;;2.00;;
43682;SDS011;29285;52.128;21.060;2023-05-10T11:21:24;11.40;;;3.20;;
43682;SDS011;29285;52.128;21.060;2023-05-10T11:26:25;6.00;;;2.40;;
43682;SDS011;29285;52.128;21.060;2023-05-10T11:31:32;3.80;;;3.00;;
43682;SDS011;29285;52.128;21.060;2023-05-10T11:36:35;6.60;;;2.20;;
43682;SDS011;29285;52.128;21.060;2023-05-10T11:41:36;3.30;;;2.30;;
43682;SDS011;29285;52.128;21.060;2023-05-10T11:46:37;7.00;;;2.30;;
43682;SDS011;29285;52.128;21.060;2023-05-10T11:51:38;5.50;;;2.30;;
43682;SDS011;29285;52.128;21.060;2023-05-10T11:56:40;8.70;;;2.60;;
43682;SDS011;29285;52.128;21.060;2023-05-10T12:01:41;5.80;;;2.10;;
43682;SDS011;29285;52.128;21.060;2023-05-10T12:06:43;4.60;;;2.20;;
43682;SDS011;29285;52.128;21.060;2023-05-10T12:11:45;4.70;;;2.10;;
43682;SDS011;29285;52.128;21.060;2023-05-10T12:16:47;4.90;;;2.30;;
43682;SDS011;29285;52.128;21.060;2023-05-10T12:21:48;2.30;;;2.00;;
43682;SDS011;29285;52.128;21.060;2023-05-10T12:26:49;5.50;;;2.40;;
43682;SDS011;29285;52.128;21.060;2023-05-10T12:36:52;5.50;;;2.00;;
43682;SDS011;29285;52.128;21.060;2023-05-10T12:41:54;6.50;;;2.20;;
43682;SDS011;29285;52.128;21.060;2023-05-10T12:46:55;4.10;;;2.40;;
43682;SDS011;29285;52.128;21.060;2023-05-10T12:51:56;3.70;;;2.20;;
43682;SDS011;29285;52.128;21.060;2023-05-10T12:56:57;3.00;;;2.30;;
43682;SDS011;29285;52.128;21.060;2023-05-10T13:01:58;3.90;;;2.70;;
43682;SDS011;29285;52.128;21.060;2023-05-10T13:07:00;2.80;;;1.80;;
43682;SDS011;29285;52.128;21.060;2023-05-10T13:12:02;8.70;;;2.20;;
43682;SDS011;29285;52.128;21.060;2023-05-10T13:17:04;5.10;;;2.30;;
43682;SDS011;29285;52.128;21.060;2023-05-10T13:22:05;8.20;;;2.10;;
43682;SDS011;29285;52.128;21.060;2023-05-10T13:27:06;2.80;;;1.80;;
43682;SDS011;29285;52.128;21.060;2023-05-10T13:32:07;2.20;;;2.00;;
43682;SDS011;29285;52.128;21.060;2023-05-10T13:37:09;3.00;;;2.00;;
43682;SDS011;29285;52.128;21.060;2023-05-10T13:42:10;5.60;;;2.00;;
43682;SDS011;29285;52.128;21.060;2023-05-10T13:47:11;3.10;;;2.00;;
43682;SDS011;29285;52.128;21.060;2023-05-10T13:52:12;5.60;;;2.40;;
43682;SDS011;29285;52.128;21.060;2023-05-10T13:57:14;6.10;;;2.30;;
43682;SDS011;29285;52.128;21.060;2023-05-10T14:02:17;2.70;;;2.10;;
43682;SDS011;29285;52.128;21.060;2023-05-10T14:07:20;6.70;;;2.50;;
43682;SDS011;29285;52.128;21.060;2023-05-10T14:12:21;6.40;;;1.70;;
43682;SDS011;29285;52.128;21.060;2023-05-10T14:17:23;3.60;;;2.20;;
43682;SDS011;29285;52.128;21.060;2023-05-10T14:22:24;4.70;;;1.70;;
43682;SDS011;29285;52.128;21.060;2023-05-10T14:27:25;5.60;;;2.20;;
43682;SDS011;29285;52.128;21.060;2023-05-10T14:32:26;4.30;;;2.40;;
43682;SDS011;29285;52.128;21.060;2023-05-10T14:37:31;6.70;;;2.00;;
43682;SDS011;29285;52.128;21.060;2023-05-10T14:42:32;5.40;;;2.10;;
43682;SDS011;29285;52.128;21.060;2023-05-10T14:47:33;6.00;;;2.00;;
43682;SDS011;29285;52.128;21.060;2023-05-10T14:52:34;5.10;;;2.50;;
43682;SDS011;29285;52.128;21.060;2023-05-10T14:57:35;3.60;;;2.10;;
43682;SDS011;29285;52.128;21.060;2023-05-10T15:02:37;3.00;;;1.90;;
43682;SDS011;29285;52.128;21.060;2023-05-10T15:07:38;6.00;;;2.10;;
43682;SDS011;29285;52.128;21.060;2023-05-10T15:12:39;3.30;;;2.50;;
43682;SDS011;29285;52.128;21.060;2023-05-10T15:17:40;2.80;;;2.00;;
43682;SDS011;29285;52.128;21.060;2023-05-10T15:22:42;5.00;;;2.40;;
43682;SDS011;29285;52.128;21.060;2023-05-10T15:27:43;4.20;;;1.60;;
43682;SDS011;29285;52.128;21.060;2023-05-10T15:32:45;2.90;;;2.20;;
43682;SDS011;29285;52.128;21.060;2023-05-10T15:37:47;7.80;;;2.60;;
43682;SDS011;29285;52.128;21.060;2023-05-10T15:42:49;5.00;;;2.10;;
43682;SDS011;29285;52.128;21.060;2023-05-10T15:47:51;4.30;;;2.20;;
43682;SDS011;29285;52.128;21.060;2023-05-10T15:52:52;4.00;;;1.70;;
43682;SDS011;29285;52.128;21.060;2023-05-10T15:57:54;6.80;;;1.80;;
43682;SDS011;29285;52.128;21.060;2023-05-10T16:02:54;3.90;;;1.90;;
43682;SDS011;29285;52.128;21.060;2023-05-10T16:07:56;5.90;;;2.30;;
43682;SDS011;29285;52.128;21.060;2023-05-10T16:12:57;3.80;;;1.90;;
43682;SDS011;29285;52.128;21.060;2023-05-10T16:17:58;3.80;;;2.10;;
43682;SDS011;29285;52.128;21.060;2023-05-10T16:23:03;2.80;;;1.80;;
43682;SDS011;29285;52.128;21.060;2023-05-10T16:28:05;2.50;;;1.40;;
43682;SDS011;29285;52.128;21.060;2023-05-10T16:33:06;3.90;;;1.90;;
43682;SDS011;29285;52.128;21.060;2023-05-10T16:43:08;9.50;;;2.10;;
43682;SDS011;29285;52.128;21.060;2023-05-10T16:48:09;7.00;;;2.80;;
43682;SDS011;29285;52.128;21.060;2023-05-10T16:53:11;2.60;;;2.00;;
43682;SDS011;29285;52.128;21.060;2023-05-10T16:58:14;3.50;;;1.80;;
43682;SDS011;29285;52.128;21.060;2023-05-10T17:03:15;11.70;;;2.70;;
43682;SDS011;29285;52.128;21.060;2023-05-10T17:08:17;5.40;;;2.10;;
43682;SDS011;29285;52.128;21.060;2023-05-10T17:13:18;3.90;;;1.70;;
43682;SDS011;29285;52.128;21.060;2023-05-10T17:18:19;1.70;;;1.60;;
43682;SDS011;29285;52.128;21.060;2023-05-10T17:23:20;4.00;;;2.10;;
43682;SDS011;29285;52.128;21.060;2023-05-10T17:28:21;9.80;;;2.10;;
43682;SDS011;29285;52.128;21.060;2023-05-10T17:33:23;3.10;;;1.80;;
43682;SDS011;29285;52.128;21.060;2023-05-10T17:38:24;3.70;;;2.00;;
43682;SDS011;29285;52.128;21.060;2023-05-10T17:43:25;2.70;;;1.90;;
43682;SDS011;29285;52.128;21.060;2023-05-10T17:48:27;4.50;;;2.30;;
43682;SDS011;29285;52.128;21.060;2023-05-10T17:53:28;3.20;;;2.30;;
43682;SDS011;29285;52.128;21.060;2023-05-10T17:58:30;4.30;;;2.50;;
43682;SDS011;29285;52.128;21.060;2023-05-10T18:03:31;5.00;;;2.40;;
43682;SDS011;29285;52.128;21.060;2023-05-10T18:08:35;6.10;;;2.50;;
43682;SDS011;29285;52.128;21.060;2023-05-10T18:13:36;6.40;;;2.70;;
43682;SDS011;29285;52.128;21.060;2023-05-10T18:18:38;3.10;;;2.60;;
43682;SDS011;29285;52.128;21.060;2023-05-10T18:23:39;5.00;;;2.70;;
43682;SDS011;29285;52.128;21.060;2023-05-10T18:28:40;6.20;;;2.50;;
43682;SDS011;29285;52.128;21.060;2023-05-10T18:33:41;7.90;;;2.20;;
43682;SDS011;29285;52.128;21.060;2023-05-10T18:38:42;6.00;;;2.40;;
43682;SDS011;29285;52.128;21.060;2023-05-10T18:43:44;3.30;;;3.00;;
43682;SDS011;29285;52.128;21.060;2023-05-10T18:48:46;5.50;;;3.10;;
43682;SDS011;29285;52.128;21.060;2023-05-10T18:53:47;3.60;;;3.10;;
43682;SDS011;29285;52.128;21.060;2023-05-10T18:58:48;4.30;;;3.00;;
43682;SDS011;29285;52.128;21.060;2023-05-10T19:03:49;4.30;;;3.10;;
43682;SDS011;29285;52.128;21.060;2023-05-10T19:08:51;5.70;;;3.40;;
43682;SDS011;29285;52.128;21.060;2023-05-10T19:13:52;5.70;;;2.90;;
43682;SDS011;29285;52.128;21.060;2023-05-10T19:18:53;4.00;;;3.40;;
43682;SDS011;29285;52.128;21.060;2023-05-10T19:23:55;5.40;;;3.80;;
43682;SDS011;29285;52.128;21.060;2023-05-10T19:29:00;6.80;;;3.70;;
43682;SDS011;29285;52.128;21.060;2023-05-10T19:34:01;7.50;;;4.10;;
43682;SDS011;29285;52.128;21.060;2023-05-10T19:39:03;5.00;;;3.90;;
43682;SDS011;29285;52.128;21.060;2023-05-10T19:44:04;6.90;;;3.80;;
43682;SDS011;29285;52.128;21.060;2023-05-10T19:49:05;6.70;;;3.60;;
43682;SDS011;29285;52.128;21.060;2023-05-10T19:54:06;6.70;;;3.50;;
43682;SDS011;29285;52.128;21.060;2023-05-10T19:59:07;7.50;;;3.90;;
43682;SDS011;29285;52.128;21.060;2023-05-10T20:04:09;5.20;;;3.30;;
43682;SDS011;29285;52.128;21.060;2023-05-10T20:09:09;13.00;;;4.90;;
43682;SDS011;29285;52.128;21.060;2023-05-10T20:14:11;9.00;;;3.70;;
43682;SDS011;29285;52.128;21.060;2023-05-10T20:19:12;8.20;;;4.20;;
43682;SDS011;29285;52.128;21.060;2023-05-10T20:24:13;7.90;;;4.40;;
43682;SDS011;29285;52.128;21.060;2023-05-10T20:29:14;7.40;;;4.90;;
43682;SDS011;29285;52.128;21.060;2023-05-10T20:34:16;6.10;;;4.00;;
43682;SDS011;29285;52.128;21.060;2023-05-10T20:39:17;8.30;;;5.00;;
43682;SDS011;29285;52.128;21.060;2023-05-10T20:44:19;7.20;;;5.10;;
43682;SDS011;29285;52.128;21.060;2023-05-10T20:49:20;8.20;;;5.00;;
43682;SDS011;29285;52.128;21.060;2023-05-10T20:54:21;9.10;;;5.10;;
43682;SDS011;29285;52.128;21.060;2023-05-10T20:59:25;8.50;;;5.00;;
43682;SDS011;29285;52.128;21.060;2023-05-10T21:04:26;7.10;;;5.30;;
43682;SDS011;29285;52.128;21.060;2023-05-10T21:09:27;5.80;;;4.90;;
43682;SDS011;29285;52.128;21.060;2023-05-10T21:14:28;8.70;;;5.00;;
43682;SDS011;29285;52.128;21.060;2023-05-10T21:19:32;9.90;;;5.30;;
43682;SDS011;29285;52.128;21.060;2023-05-10T21:24:34;7.20;;;4.40;;
43682;SDS011;29285;52.128;21.060;2023-05-10T21:29:35;6.90;;;4.40;;
43682;SDS011;29285;52.128;21.060;2023-05-10T21:34:36;5.80;;;4.20;;
43682;SDS011;29285;52.128;21.060;2023-05-10T21:39:37;6.90;;;4.90;;
43682;SDS011;29285;52.128;21.060;2023-05-10T21:44:38;9.90;;;4.90;;
43682;SDS011;29285;52.128;21.060;2023-05-10T21:49:40;5.60;;;4.30;;
43682;SDS011;29285;52.128;21.060;2023-05-10T21:54:41;6.90;;;4.60;;
43682;SDS011;29285;52.128;21.060;2023-05-10T21:59:42;9.70;;;4.40;;
43682;SDS011;29285;52.128;21.060;2023-05-10T22:04:43;6.40;;;4.10;;
43682;SDS011;29285;52.128;21.060;2023-05-10T22:09:44;5.90;;;3.40;;
43682;SDS011;29285;52.128;21.060;2023-05-10T22:14:45;5.50;;;4.00;;
43682;SDS011;29285;52.128;21.060;2023-05-10T22:19:46;6.00;;;4.10;;
43682;SDS011;29285;52.128;21.060;2023-05-10T22:24:47;5.50;;;3.80;;
43682;SDS011;29285;52.128;21.060;2023-05-10T22:29:49;6.00;;;3.80;;
43682;SDS011;29285;52.128;21.060;2023-05-10T22:34:50;4.60;;;3.10;;
43682;SDS011;29285;52.128;21.060;2023-05-10T22:39:52;8.20;;;4.10;;
43682;SDS011;29285;52.128;21.060;2023-05-10T22:44:53;4.50;;;3.40;;
43682;SDS011;29285;52.128;21.060;2023-05-10T22:49:54;7.20;;;3.80;;
43682;SDS011;29285;52.128;21.060;2023-05-10T22:54:55;4.50;;;2.90;;
43682;SDS011;29285;52.128;21.060;2023-05-10T22:59:56;6.30;;;3.90;;
43682;SDS011;29285;52.128;21.060;2023-05-10T23:04:57;4.00;;;2.90;;
43682;SDS011;29285;52.128;21.060;2023-05-10T23:09:59;6.30;;;3.40;;
43682;SDS011;29285;52.128;21.060;2023-05-10T23:15:00;6.20;;;3.00;;
43682;SDS011;29285;52.128;21.060;2023-05-10T23:20:01;5.60;;;3.20;;
43682;SDS011;29285;52.128;21.060;2023-05-10T23:25:02;3.70;;;2.90;;
43682;SDS011;29285;52.128;21.060;2023-05-10T23:30:04;4.60;;;2.90;;
43682;SDS011;29285;52.128;21.060;2023-05-10T23:35:06;6.10;;;2.60;;
43682;SDS011;29285;52.128;21.060;2023-05-10T23:40:07;4.30;;;2.80;;
43682;SDS011;29285;52.128;21.060;2023-05-10T23:45:09;4.80;;;2.40;;
43682;SDS011;29285;52.128;21.060;2023-05-10T23:50:10;3.70;;;3.20;;
43682;SDS011;29285;52.128;21.060;2023-05-10T23:55:11;4.00;;;3.10;;
